KCBE

Greater Cumberland Regional Airport

Cumberland, West Virginia, USA
METAR KCBE 181920Z AUTO 00000KT 2 1/2SM -RA BR OVC023 02/00 A3012 RMK AO2 T00160004
Observed Flight Rules
Jan-18 @ 19:20 UTC (42 minutes ago) Instrument Flight Rules
Visibility Clouds Conditions
2 1/2 miles
  • Overcast at 2,300' AGL
  • Light Rain
  • Mist
Temperatures Readings
Current 2°C / 36°F
Dewpoint 0°C / 32°F
Humidity 87%
Altimeter 30.12" Hg
Pressure 1020.02 hPa
Elevation 236
METAR KCBE 181920Z AUTO 00000KT 2 1/2SM -RA BR OVC023 02/00 A3012 RMK AO2 T00160004
Observed Flight Rules
Jan-18 @ 19:20 UTC
(42 minutes ago)
IFR
Clouds
  • Overcast at 2,300' AGL
Conditions
  • Light Rain
  • Mist
Temperature Dewpoint
2°C / 36°F 0°C / 32°F
Humidity Altimeter Pressure
87% 30.12" Hg 1020.02 hPa